CW7054 Weather Reports


Display with metric or nautical units.
time (UTC)temp
F
wind
direction
speed
MPH
gust
MPH
rain 1hr
in
rain 24hr
in
rain mn
in
humidity
%
barometer
mb
20200408224623 54 17 0.0 4.0 0.00 0.09 0.09 73 1002.5
20200408223126 54 11 0.0 2.0 0.00 0.09 0.09 72 1002.5
20200408221547 54 11 0.0 3.0 0.00 0.09 0.09 73 1002.4
20200408220112 55 13 0.0 3.0 0.00 0.09 0.09 72 1002.4
20200408214546 54 14 0.0 4.0 0.00 0.09 0.09 72 1002.2
20200408213054 55 30 0.0 4.0 0.00 0.09 0.09 73 1002.2
20200408211534 54 34 0.0 5.0 0.00 0.09 0.09 73 1002.2
20200408210039 54 56 1.0 6.0 0.00 0.09 0.09 74 1001.9
20200408204504 55 28 0.0 5.0 0.00 0.09 0.09 73 1001.9
20200408203233 54 92 0.0 6.0 0.00 0.09 0.09 74 1001.7
20200408201645 54 360 1.0 4.0 0.00 0.09 0.09 75 1002.1
20200408200251 53 41 3.0 5.0 0.00 0.09 0.09 76 1002.1
20200408194722 53 317 1.0 7.0 0.00 0.09 0.09 76 1002.0
20200408193112 53 277 0.0 7.0 0.00 0.09 0.09 76 1001.7
20200408191633 53 13 1.0 8.0 0.00 0.09 0.09 75 1001.5
20200408190043 53 45 4.0 12.0 0.00 0.09 0.09 76 1001.2
20200408184701 53 325 3.0 9.0 0.00 0.09 0.09 75 1001.3
20200408183040 53 13 3.0 10.0 0.00 0.09 0.09 75 1001.2
20200408181535 53 360 1.0 8.0 0.00 0.09 0.09 75 1001.2
20200408180100 53 328 2.0 11.0 0.00 0.09 0.09 75 1001.2
20200408174520 54 32 3.0 8.0 0.00 0.09 0.09 75 1001.1
20200408173019 54 26 3.0 13.0 0.00 0.09 0.09 75 1000.6
20200408171507 53 32 3.0 14.0 0.00 0.09 0.09 75 1000.5
20200408170011 53 30 3.0 10.0 0.00 0.09 0.09 76 1000.5
20200408164659 52 345 5.0 11.0 0.00 0.09 0.09 76 1000.7
20200408163139 53 40 4.0 11.0 0.00 0.09 0.09 76 1000.7
20200408161737 52 18 2.0 10.0 0.00 0.09 0.09 77 1000.5
20200408160127 51 28 4.0 11.0 0.00 0.09 0.09 77 1000.5
20200408154707 51 10 3.0 13.0 0.00 0.09 0.09 77 1000.5
20200408153141 51 28 1.0 10.0 0.00 0.09 0.09 76 1000.5
20200408151603 50 40 2.0 11.0 0.00 0.09 0.09 74 1000.4
20200408150039 50 12 4.0 11.0 0.00 0.09 0.09 74 1000.2
20200408144532 49 59 2.0 12.0 0.00 0.09 0.09 69 1000.1
20200408143109 49 71 6.0 13.0 0.00 0.09 0.09 61 1000.0
20200408141517 49 61 3.0 10.0 0.00 0.09 0.09 27 999.8
20200408140026 48 54 4.0 10.0 0.00 0.09 0.09 7 999.8
20200408134519 48 49 0.0 7.0 0.00 0.09 0.09 4 999.6
20200408133009 47 30 2.0 9.0 0.00 0.09 0.09 5 999.4
20200408131818 48 32 1.0 8.0 0.00 0.09 0.09 3 999.1
20200408130235 48 50 2.0 6.0 0.00 0.09 0.09 2 999.0
20200408124620 48 17 1.0 4.0 0.01 0.09 0.09 1 998.9
20200408123124 48 61 0.0 5.0 0.01 0.09 0.09 2 998.7
20200408121605 48 69 0.0 1.0 0.01 0.09 0.09 3 998.8
20200408120106 48 69 0.0 0.0 0.01 0.09 0.09 5 998.8
20200408114540 47 69 0.0 2.0 0.00 0.08 0.08 6 998.2
20200408113135 47 69 0.0 3.0 0.00 0.08 0.08 8 998.6
20200408111533 47 68 0.0 3.0 0.00 0.08 0.08 10 998.7
20200408110100 47 68 0.0 3.0 0.00 0.08 0.08 13 998.2
20200408104600 47 66 1.0 3.0 0.00 0.08 0.08 14 997.9
20200408103013 47 24 0.0 2.0 0.00 0.08 0.08 15 998.3
20200408101520 47 23 0.0 1.0 0.02 0.08 0.08 17 998.6
20200408100011 47 279 0.0 2.0 0.03 0.08 0.08 19 998.7
20200408094520 47 234 0.0 2.0 0.04 0.08 0.08 23 998.9
20200408093035 48 238 0.0 3.0 0.06 0.08 0.08 25 999.0
20200408090156 48 242 0.0 1.0 0.04 0.05 0.05 29 999.7
20200408084732 48 242 0.0 0.0 0.03 0.04 0.04 31 999.8
20200408083243 48 242 0.0 2.0 0.01 0.02 0.02 37 999.9
20200408081649 48 241 0.0 2.0 0.01 0.02 0.02 39 1000.1
20200408080123 48 242 0.0 2.0 0.01 0.01 0.01 42 1000.8
20200408074556 48 241 0.0 1.0 0.01 0.01 0.01 43 999.6
20200408073127 48 242 0.0 0.0 0.01 0.01 0.01 46 1000.1
20200408071609 49 242 0.0 0.0 0.01 0.01 0.01 50 1000.6
20200408070052 49 242 0.0 0.0 0.00 0.00 0.00 54 1001.1
20200408064550 49 242 0.0 0.0 0.00 0.00 0.00 58 1001.6
20200408063054 49 242 0.0 1.0 0.00 0.00 0.00 62 1002.0
20200408061541 49 242 0.0 1.0 0.00 0.00 0.00 69 1002.2
20200408060109 49 242 0.0 5.0 0.00 0.00 0.00 69 1003.1
20200408054609 49 175 0.0 5.0 0.00 0.00 0.00 70 1002.7
20200408053103 49 193 0.0 5.0 0.00 0.00 0.00 70 1003.2
20200408051536 49 229 0.0 4.0 0.00 0.00 0.00 69 1003.6
20200408050029 49 170 1.0 5.0 0.00 0.00 0.00 65 1003.8
20200408044536 49 190 0.0 4.0 0.00 0.00 0.00 63 1003.9
20200408043047 49 202 0.0 4.0 0.00 0.00 0.00 63 1004.4
20200408041515 49 217 0.0 2.0 0.00 0.00 0.00 65 1004.6
20200408040009 49 216 0.0 3.0 0.00 0.00 0.00 65 1005.0
20200408034537 49 178 0.0 5.0 0.00 0.00 0.00 65 1005.2
20200408033011 49 165 0.0 7.0 0.00 0.00 0.00 67 1005.5
20200408031521 49 167 0.0 5.0 0.00 0.00 0.00 69 1005.9
20200408030002 49 226 0.0 5.0 0.00 0.00 0.00 69 1006.1
20200408024501 49 171 0.0 6.0 0.00 0.00 0.00 71 1006.1
20200408023203 49 233 0.0 7.0 0.00 0.00 0.00 72 1006.4
20200408021603 49 254 1.0 4.0 0.00 0.00 0.00 74 1006.6
20200408020300 49 169 0.0 5.0 0.00 0.00 0.00 75 1006.8
20200408014719 49 207 0.0 6.0 0.00 0.00 0.00 76 1006.9
20200408013216 49 187 1.0 4.0 0.00 0.00 0.00 76 1007.2
20200408011637 49 173 1.0 4.0 0.00 0.00 0.00 76 1007.3
20200408010125 49 173 0.0 5.0 0.00 0.00 0.00 76 1007.4
20200408004612 49 206 0.0 3.0 0.00 0.00 0.00 75 1007.6
20200408003137 49 186 0.0 5.0 0.00 0.00 0.00 74 1007.6
20200408001654 49 164 0.0 5.0 0.00 0.00 0.00 72 1007.6
20200408000146 49 222 1.0 5.0 0.00 0.00 0.00 71 1007.7
20200407234644 49 251 0.0 4.0 0.00 0.00 0.00 69 1007.8
20200407233122 50 181 1.0 4.0 0.00 0.00 0.00 68 1007.7
20200407231624 50 175 1.0 8.0 0.00 0.00 0.00 65 1007.8
20200407230134 51 194 1.0 4.0 0.00 0.00 0.00 62 1008.0